Stone Creek, OH (43840)

2:12 AM EDT on September 27, 2016 (GMT -0400)
Bakersville, OH | | Change Station

Elev 945 ft 40.37 °N, 81.66 °W | Updated 2 minutes ago

Clear
Clear
46.6 °F
Feels Like 47 °F
N
0.0
Wind Variable Wind from West
Gusts 0.0 mph

Today
High -- | Low -- °F
--% Chance of Precip.
Yesterday
High -- | Low -- °F
Precip. -- in
Pressure 30.00 in
Visibility 10.0 miles
Clouds Clear
Windchill 47 °F
Dew Point 46 °F
Humidity 99%
Rainfall 0.00 in
Snow Depth Not available.
7:19 AM 7:14 PM
Waning Crescent, 13% visible
METAR KPHD 270553Z AUTO 11003KT 10SM CLR 11/11 A3000 RMK AO2 SLP159 T01110111 10150 20106 58005
Pressure 30.00 in
Visibility 10.0 miles
Clouds Clear
Windchill 47 °F
Dew Point 46 °F
Humidity 99%
Rainfall 0.00 in
Snow Depth Not available.
7:19 AM 7:14 PM
Waning Crescent, 13% visible
METAR KPHD 270553Z AUTO 11003KT 10SM CLR 11/11 A3000 RMK AO2 SLP159 T01110111 10150 20106 58005

10-Day Weather Forecast

Almanac

Astronomy

Sep. 27, 2016 Rise Set
Actual Time
Civil Twilight
Nautical Twilight
Astronomical Twilight
Moon
Length of Visible Light
Length of Day
Tomorrow will be .
, % of the Moon is Illuminated

Today's Extremes

State Highs State Lows

Community

WunderPhotos

Upload Photos

1,942,040 photos uploaded!

WunderBlog® & News

Nearby

Air Quality

  Air Quality AQ Index Pollutant
Not available.

Snow Depth

Station Depth Elevation

Earthquake Activity

City Distance Mag. Time & Date
Minimum magnitude displayed is 2.5.

Coastal Water Temperatures

Place Temperature

Stations

Nearby Weather Stations

Station Location Temp. Windchill Dew Point Humidity Wind Precip. Elev Updated Type
                   

Watches & Warnings

There are currently no watches in effect.